createdAt,value
2019-02-09T00:06:59.439Z,62.85
2019-02-09T00:35:36.917Z,64.35
2019-02-09T01:04:15.138Z,64.34
2019-02-09T01:32:45.340Z,64.66
2019-02-09T02:01:29.189Z,62.01
2019-02-09T02:30:07.583Z,59.84
2019-02-09T02:58:43.641Z,60.04
2019-02-09T03:27:21.184Z,62.57
2019-02-09T03:55:58.980Z,61.94
2019-02-09T04:24:38.227Z,63.32
2019-02-09T04:53:12.642Z,66.25
2019-02-09T05:21:44.904Z,68.13
2019-02-09T05:50:20.602Z,69.95
2019-02-09T06:19:01.901Z,70.21
2019-02-09T06:47:34.973Z,72.07
2019-02-09T07:16:12.092Z,73.36
2019-02-09T07:44:53.211Z,72
2019-02-09T08:13:35.334Z,70.89
2019-02-09T08:42:19.351Z,68.74
2019-02-09T09:10:57.618Z,66.5
2019-02-09T09:39:36.983Z,65.49
2019-02-09T10:08:19.542Z,64.41
2019-02-09T10:37:01.133Z,63.49
2019-02-09T11:05:42.230Z,61.81
2019-02-09T11:34:24.467Z,60.25
2019-02-09T12:03:16.166Z,57.57
2019-02-09T12:31:24.455Z,54.41
2019-02-09T13:00:01.864Z,55.4
2019-02-09T13:28:38.800Z,56.81
2019-02-09T13:57:15.056Z,53.94
2019-02-09T14:25:53.800Z,56.11
2019-02-09T14:54:32.660Z,56.87
2019-02-09T15:23:08.251Z,56.89
2019-02-09T15:51:46.676Z,60.12
2019-02-09T16:20:23.324Z,60.71
2019-02-09T16:49:00.056Z,62.13
2019-02-09T17:17:36.998Z,64.01
2019-02-09T17:46:14.135Z,65.4
2019-02-09T18:14:50.164Z,65.74
2019-02-09T18:43:30.189Z,65.78
2019-02-09T19:12:07.039Z,66.81
2019-02-09T19:40:42.826Z,66.9
2019-02-09T20:09:24.120Z,67.36
2019-02-09T20:38:01.370Z,69.79
2019-02-09T21:06:40.706Z,70.76
2019-02-09T21:35:21.853Z,70.08
2019-02-09T22:04:02.978Z,70.34
2019-02-09T22:32:43.305Z,70.35
2019-02-09T23:01:20.460Z,72.22
2019-02-09T23:29:59.828Z,71.91
2019-02-09T23:58:35.328Z,72.74
